Time;durP1;ratioP1;P1;durP2;ratioP2;P2;SDS_P1;SDS_P2;PMS_P1;PMS_P2;Temp;Humidity;BMP_temperature;BMP_pressure;BME280_temperature;BME280_humidity;BME280_pressure;Samples;Min_cycle;Max_cycle;Signal;HPM_P1;HPM_P2
2023/07/15 00:00:15;;;;;;;5.78;3.00;;;20.00;61.30;;;;;;5007738;28;20307;-69
2023/07/15 00:02:43;;;;;;;6.47;3.38;;;20.10;61.90;;;;;;5001983;28;20140;-69
2023/07/15 00:05:20;;;;;;;6.20;2.67;;;20.10;61.70;;;;;;5005772;28;20049;-69
2023/07/15 00:07:46;;;;;;;5.93;3.15;;;20.10;61.50;;;;;;5003323;28;20411;-68
2023/07/15 00:10:12;;;;;;;6.75;3.05;;;20.10;62.00;;;;;;5004873;28;20462;-69
2023/07/15 00:12:37;;;;;;;7.43;3.50;;;20.20;60.60;;;;;;5003559;28;20029;-69
2023/07/15 00:15:03;;;;;;;8.55;3.45;;;20.20;61.30;;;;;;5004775;28;20061;-71
2023/07/15 00:17:29;;;;;;;8.85;3.42;;;20.00;61.50;;;;;;5004989;28;20064;-72
2023/07/15 00:19:54;;;;;;;6.82;3.10;;;20.00;62.10;;;;;;5004517;28;20073;-70
2023/07/15 00:22:20;;;;;;;6.63;3.67;;;19.80;62.50;;;;;;5005433;28;20045;-70
2023/07/15 00:24:46;;;;;;;6.28;3.20;;;19.80;62.10;;;;;;5002183;28;20044;-68
2023/07/15 00:27:11;;;;;;;6.95;3.30;;;19.70;62.50;;;;;;5003637;28;20033;-68
2023/07/15 00:29:37;;;;;;;7.38;3.75;;;19.80;61.70;;;;;;5010126;28;20430;-68
2023/07/15 00:32:04;;;;;;;5.45;3.08;;;19.70;61.90;;;;;;5006025;28;20026;-68
2023/07/15 00:34:30;;;;;;;5.88;3.03;;;19.70;61.90;;;;;;5002445;28;20033;-69
2023/07/15 00:36:56;;;;;;;6.10;2.92;;;19.60;63.00;;;;;;5008886;28;20049;-69
2023/07/15 00:39:21;;;;;;;6.40;3.08;;;19.50;63.10;;;;;;5004563;28;20109;-69
2023/07/15 00:41:47;;;;;;;7.32;3.13;;;19.50;63.10;;;;;;5004217;28;20192;-68
2023/07/15 00:44:15;;;;;;;6.53;2.70;;;19.40;62.80;;;;;;4998804;28;20089;-69
2023/07/15 00:46:59;;;;;;;8.63;2.95;;;19.40;63.10;;;;;;5010440;28;20109;-69
2023/07/15 00:49:30;;;;;;;11.68;3.30;;;19.40;63.20;;;;;;5009284;28;20035;-68
2023/07/15 00:52:02;;;;;;;6.30;2.80;;;19.40;63.30;;;;;;5017184;28;20039;-69
2023/07/15 00:54:44;;;;;;;8.10;3.38;;;19.30;64.80;;;;;;5006378;28;20107;-68
2023/07/15 00:57:11;;;;;;;7.35;3.10;;;19.40;63.20;;;;;;5004544;28;20025;-69
2023/07/15 00:59:39;;;;;;;9.55;3.05;;;19.30;64.00;;;;;;5007250;28;20034;-69
2023/07/15 01:02:05;;;;;;;7.63;3.25;;;19.40;63.20;;;;;;5006615;28;20442;-69
2023/07/15 01:04:30;;;;;;;5.78;2.60;;;19.50;62.50;;;;;;5006879;28;20038;-69
2023/07/15 01:06:56;;;;;;;7.18;2.67;;;19.50;62.60;;;;;;4999283;28;20065;-69
2023/07/15 01:09:24;;;;;;;10.05;3.28;;;19.70;60.70;;;;;;5007545;28;20068;-70
2023/07/15 01:11:49;;;;;;;8.25;2.78;;;19.90;60.40;;;;;;5003322;28;20133;-69
2023/07/15 01:14:15;;;;;;;5.25;2.83;;;20.00;59.60;;;;;;5002547;28;20423;-69
2023/07/15 01:16:40;;;;;;;5.28;3.10;;;19.90;59.90;;;;;;5003419;28;20034;-69
2023/07/15 01:19:06;;;;;;;5.20;2.75;;;19.90;60.20;;;;;;5004585;28;20417;-69
2023/07/15 01:21:34;;;;;;;6.32;2.45;;;19.80;60.30;;;;;;5010241;28;20099;-69
2023/07/15 01:24:00;;;;;;;6.20;2.70;;;19.90;59.90;;;;;;5003749;28;20335;-71
2023/07/15 01:26:25;;;;;;;8.00;3.20;;;19.90;60.20;;;;;;5005533;28;20045;-69
2023/07/15 01:28:51;;;;;;;5.95;2.80;;;19.90;60.10;;;;;;4997622;28;20041;-70
2023/07/15 01:31:19;;;;;;;8.05;3.13;;;20.00;59.90;;;;;;5002827;28;20062;-69
2023/07/15 01:33:44;;;;;;;7.20;3.40;;;19.90;60.50;;;;;;5008432;28;20037;-69
2023/07/15 01:36:10;;;;;;;7.32;3.05;;;19.80;60.20;;;;;;5004740;28;20382;-69
2023/07/15 01:38:37;;;;;;;8.02;3.15;;;19.90;60.20;;;;;;5020373;28;20318;-69
2023/07/15 01:41:03;;;;;;;6.70;2.83;;;19.80;60.10;;;;;;5005518;28;20121;-69
2023/07/15 01:43:28;;;;;;;4.97;2.63;;;19.80;60.10;;;;;;5005321;28;20041;-69
2023/07/15 01:45:54;;;;;;;7.85;3.08;;;19.90;60.10;;;;;;5009208;28;20038;-69
2023/07/15 01:48:19;;;;;;;6.75;2.92;;;19.90;59.40;;;;;;5004529;28;20065;-69
2023/07/15 01:50:46;;;;;;;7.43;2.65;;;19.90;59.70;;;;;;5004406;28;20481;-70
2023/07/15 01:53:12;;;;;;;6.43;2.83;;;19.70;60.60;;;;;;5003071;28;20061;-68
2023/07/15 01:55:37;;;;;;;7.05;2.92;;;19.60;60.80;;;;;;5000917;28;20189;-68
2023/07/15 01:58:02;;;;;;;10.45;2.70;;;19.60;61.00;;;;;;5003650;28;20069;-69
2023/07/15 02:00:28;;;;;;;10.90;3.10;;;19.50;61.00;;;;;;5004155;28;20030;-70
2023/07/15 02:02:54;;;;;;;7.18;2.90;;;19.50;60.40;;;;;;5007237;28;20117;-69
2023/07/15 02:05:19;;;;;;;7.65;3.13;;;19.50;60.70;;;;;;5007404;28;20060;-69
2023/07/15 02:07:45;;;;;;;7.53;2.75;;;19.60;60.70;;;;;;5009361;28;20040;-68
2023/07/15 02:10:11;;;;;;;6.82;2.88;;;19.50;61.00;;;;;;5008091;28;20154;-70
2023/07/15 02:12:36;;;;;;;7.47;3.15;;;19.50;60.70;;;;;;5007364;28;20442;-68
2023/07/15 02:15:03;;;;;;;7.45;2.88;;;19.50;60.50;;;;;;4999580;28;20366;-69
2023/07/15 02:17:28;;;;;;;6.13;2.50;;;19.50;60.50;;;;;;5008525;28;20060;-69
2023/07/15 02:19:57;;;;;;;6.97;2.92;;;19.60;60.50;;;;;;5007776;28;20046;-68
2023/07/15 02:22:22;;;;;;;5.75;2.90;;;19.50;60.70;;;;;;5007298;28;20014;-68
2023/07/15 02:24:48;;;;;;;5.05;2.80;;;19.50;60.70;;;;;;5008059;28;20157;-70
2023/07/15 02:27:16;;;;;;;8.73;2.70;;;19.50;60.70;;;;;;5007370;28;20133;-70
2023/07/15 02:29:42;;;;;;;6.43;3.10;;;19.40;60.90;;;;;;5015606;28;20033;-70
2023/07/15 02:32:08;;;;;;;8.75;3.05;;;19.30;61.50;;;;;;5005554;28;20022;-70
2023/07/15 02:34:33;;;;;;;8.57;3.00;;;19.30;61.80;;;;;;5009610;28;20082;-69
2023/07/15 02:36:59;;;;;;;6.63;2.90;;;19.20;61.90;;;;;;5007757;28;20410;-69
2023/07/15 02:39:24;;;;;;;8.25;3.33;;;19.20;61.70;;;;;;5010277;28;20026;-68
2023/07/15 02:41:50;;;;;;;6.13;2.92;;;19.20;61.90;;;;;;5000608;28;20308;-69
2023/07/15 02:44:15;;;;;;;5.40;2.78;;;19.20;61.90;;;;;;5006246;28;20116;-68
2023/07/15 02:46:41;;;;;;;7.07;3.22;;;19.20;61.90;;;;;;5010288;28;20065;-69
2023/07/15 02:49:06;;;;;;;5.55;2.83;;;19.10;62.30;;;;;;5005158;28;20346;-69
2023/07/15 02:51:33;;;;;;;5.68;2.80;;;19.10;62.10;;;;;;5003909;28;20022;-69
2023/07/15 02:54:00;;;;;;;9.05;3.30;;;19.10;62.10;;;;;;5009120;28;20030;-69
2023/07/15 02:56:26;;;;;;;8.40;2.75;;;19.10;62.30;;;;;;5005206;28;20041;-68
2023/07/15 02:58:52;;;;;;;6.65;2.70;;;19.10;62.10;;;;;;5012668;28;20037;-69
2023/07/15 03:01:17;;;;;;;6.55;3.13;;;19.00;62.80;;;;;;5005656;28;20033;-68
2023/07/15 03:03:43;;;;;;;6.05;2.97;;;18.90;63.10;;;;;;5006657;28;20366;-69
2023/07/15 03:06:09;;;;;;;6.85;2.95;;;18.90;63.00;;;;;;5007058;28;20029;-69
2023/07/15 03:08:34;;;;;;;6.32;2.88;;;18.80;63.10;;;;;;5013908;28;20057;-69
2023/07/15 03:11:00;;;;;;;6.75;3.10;;;18.80;63.20;;;;;;5005008;28;20399;-69
2023/07/15 03:13:25;;;;;;;7.03;2.97;;;18.80;63.10;;;;;;5006986;28;20373;-69
2023/07/15 03:15:52;;;;;;;4.80;2.70;;;18.80;63.10;;;;;;5006046;28;20046;-70
2023/07/15 03:18:18;;;;;;;7.95;3.10;;;18.70;63.70;;;;;;5010356;28;20026;-69
2023/07/15 03:20:43;;;;;;;8.60;2.88;;;18.70;63.50;;;;;;5007996;28;20117;-71
2023/07/15 03:23:08;;;;;;;6.75;3.05;;;18.80;63.10;;;;;;5007325;28;20343;-69
2023/07/15 03:25:34;;;;;;;6.53;3.15;;;18.80;63.50;;;;;;5011926;28;20034;-70
2023/07/15 03:28:00;;;;;;;9.10;2.95;;;18.70;63.80;;;;;;5007843;28;20029;-68
2023/07/15 03:30:26;;;;;;;6.90;2.90;;;18.70;63.70;;;;;;5008994;28;20840;-70
2023/07/15 03:32:56;;;;;;;10.30;3.25;;;18.70;63.90;;;;;;5005468;28;20026;-69
2023/07/15 03:35:21;;;;;;;6.80;3.20;;;18.70;63.60;;;;;;5007181;28;20106;-69
2023/07/15 03:37:47;;;;;;;6.90;3.00;;;18.60;63.90;;;;;;5010820;28;20128;-68
2023/07/15 03:40:13;;;;;;;7.97;2.80;;;18.60;64.50;;;;;;5005486;28;20053;-69
2023/07/15 03:42:39;;;;;;;7.03;2.90;;;18.60;64.80;;;;;;5000972;28;20022;-68
2023/07/15 03:45:06;;;;;;;5.93;2.65;;;18.70;64.10;;;;;;5006453;28;20105;-68
2023/07/15 03:47:33;;;;;;;5.95;2.95;;;18.60;64.50;;;;;;5010961;28;20022;-71
2023/07/15 03:49:59;;;;;;;8.75;3.17;;;18.60;64.10;;;;;;5008036;28;20021;-72
2023/07/15 03:52:24;;;;;;;7.43;2.90;;;18.50;64.60;;;;;;5006690;28;20046;-68
2023/07/15 03:54:50;;;;;;;6.45;2.83;;;18.50;64.40;;;;;;5009555;28;20057;-68
2023/07/15 03:57:15;;;;;;;5.45;2.72;;;18.50;64.80;;;;;;5004136;28;20381;-68
2023/07/15 03:59:41;;;;;;;6.22;2.83;;;18.50;64.90;;;;;;5008861;28;20122;-69
2023/07/15 04:02:06;;;;;;;7.28;2.70;;;18.50;66.00;;;;;;5005072;28;20029;-68
2023/07/15 04:04:32;;;;;;;5.80;2.95;;;18.40;65.30;;;;;;5007303;28;20060;-69
2023/07/15 04:06:58;;;;;;;4.90;2.92;;;18.40;65.80;;;;;;5018746;28;20073;-71
2023/07/15 04:09:24;;;;;;;7.00;3.15;;;18.50;65.20;;;;;;5009635;28;20018;-68
2023/07/15 04:11:51;;;;;;;9.20;3.13;;;18.50;65.50;;;;;;5005299;28;20032;-68
2023/07/15 04:14:17;;;;;;;4.63;2.53;;;18.50;65.10;;;;;;5004875;28;20060;-68
2023/07/15 04:16:43;;;;;;;6.20;3.00;;;18.50;66.10;;;;;;5000454;28;20362;-69
2023/07/15 04:19:09;;;;;;;8.10;2.95;;;18.50;65.60;;;;;;5007624;28;20418;-69
2023/07/15 04:21:34;;;;;;;5.05;2.83;;;18.50;65.60;;;;;;5003165;28;20041;-69
2023/07/15 04:24:00;;;;;;;5.68;2.75;;;18.50;65.70;;;;;;5005503;28;20029;-68
2023/07/15 04:26:27;;;;;;;5.57;2.78;;;18.40;65.80;;;;;;5007283;28;20036;-68
2023/07/15 04:28:54;;;;;;;8.00;3.22;;;18.50;65.70;;;;;;5012865;28;20114;-66
2023/07/15 04:31:20;;;;;;;4.30;2.75;;;18.50;66.10;;;;;;5007574;28;20442;-66
2023/07/15 04:33:48;;;;;;;4.30;2.70;;;18.60;65.40;;;;;;5009453;28;20098;-67
2023/07/15 04:36:14;;;;;;;5.70;2.40;;;18.60;66.00;;;;;;5004089;28;20079;-67
2023/07/15 04:38:40;;;;;;;4.97;2.60;;;18.80;65.40;;;;;;5004194;28;20123;-66
2023/07/15 04:41:06;;;;;;;7.07;2.58;;;18.90;65.30;;;;;;5002439;28;20105;-66
2023/07/15 04:43:32;;;;;;;7.95;2.53;;;19.00;64.60;;;;;;5001723;28;20029;-67
2023/07/15 04:45:58;;;;;;;6.90;2.53;;;19.00;64.80;;;;;;4997516;28;20053;-66
2023/07/15 04:48:24;;;;;;;4.80;2.55;;;19.10;64.00;;;;;;5005377;28;20049;-66
2023/07/15 04:50:50;;;;;;;5.70;2.70;;;19.20;64.00;;;;;;5006246;28;20519;-67
2023/07/15 04:53:15;;;;;;;7.13;2.50;;;19.40;64.40;;;;;;5003363;28;20042;-67
2023/07/15 04:55:42;;;;;;;5.47;2.28;;;19.40;64.50;;;;;;5004028;28;20106;-67
2023/07/15 04:58:08;;;;;;;6.10;2.38;;;19.50;63.70;;;;;;5009084;28;20114;-66
2023/07/15 05:00:33;;;;;;;4.38;2.33;;;19.60;63.80;;;;;;5002554;28;20313;-67
2023/07/15 05:02:59;;;;;;;6.43;2.40;;;19.70;63.80;;;;;;5005754;28;20021;-66
2023/07/15 05:05:25;;;;;;;5.15;2.40;;;19.70;63.60;;;;;;5004656;28;20351;-66
2023/07/15 05:07:51;;;;;;;5.13;2.05;;;19.70;64.20;;;;;;5011397;28;20466;-67
2023/07/15 05:10:16;;;;;;;8.18;2.47;;;19.70;63.90;;;;;;5002528;28;20117;-66
2023/07/15 05:12:42;;;;;;;5.68;2.60;;;19.60;64.80;;;;;;5005690;28;20132;-67
2023/07/15 05:15:08;;;;;;;8.65;3.17;;;19.40;65.20;;;;;;5001583;28;20040;-67
2023/07/15 05:17:33;;;;;;;6.15;2.30;;;19.40;65.20;;;;;;5002683;28;20030;-66
2023/07/15 05:19:59;;;;;;;7.38;2.45;;;19.40;65.10;;;;;;5004171;28;20122;-67
2023/07/15 05:22:24;;;;;;;6.38;2.30;;;19.30;65.20;;;;;;5005178;28;20128;-68
2023/07/15 05:24:50;;;;;;;6.70;2.38;;;19.30;65.70;;;;;;4995779;28;20045;-67
2023/07/15 05:27:15;;;;;;;5.35;2.47;;;19.30;65.70;;;;;;4997335;28;20141;-69
2023/07/15 05:29:41;;;;;;;4.38;2.08;;;19.40;65.80;;;;;;5000113;28;20060;-68
2023/07/15 05:32:07;;;;;;;5.55;1.85;;;19.40;65.50;;;;;;4998965;28;20528;-65
2023/07/15 05:34:32;;;;;;;5.13;2.55;;;19.60;65.60;;;;;;5006483;28;20141;-66
2023/07/15 05:36:58;;;;;;;5.28;2.28;;;19.70;65.20;;;;;;5011634;28;20034;-65
2023/07/15 05:39:23;;;;;;;4.18;2.47;;;19.80;65.10;;;;;;5002725;28;20109;-65
2023/07/15 05:41:49;;;;;;;5.03;2.05;;;20.00;63.90;;;;;;5009349;28;20101;-65
2023/07/15 05:44:15;;;;;;;9.63;2.38;;;20.10;63.60;;;;;;5006827;28;20026;-65
2023/07/15 05:46:40;;;;;;;6.28;2.22;;;20.20;64.20;;;;;;5004665;28;20117;-65
2023/07/15 05:49:06;;;;;;;7.45;2.08;;;20.40;63.10;;;;;;5011661;28;20026;-65
2023/07/15 05:51:32;;;;;;;6.10;2.30;;;20.50;64.30;;;;;;5013565;28;20117;-66
2023/07/15 05:53:57;;;;;;;3.60;1.92;;;20.60;63.10;;;;;;5008922;28;20087;-66
2023/07/15 05:56:23;;;;;;;8.05;2.15;;;20.70;63.10;;;;;;5008951;28;20026;-66
2023/07/15 05:58:50;;;;;;;5.63;2.60;;;20.80;63.00;;;;;;5013449;28;20029;-65
2023/07/15 06:01:16;;;;;;;6.97;2.75;;;20.90;63.20;;;;;;5007892;28;20050;-67
2023/07/15 06:03:41;;;;;;;5.90;2.20;;;21.00;63.10;;;;;;5006998;28;20065;-67
2023/07/15 06:06:07;;;;;;;5.47;2.30;;;21.00;62.50;;;;;;5001084;28;20034;-69
2023/07/15 06:08:32;;;;;;;3.72;2.30;;;21.20;63.10;;;;;;5005142;28;20074;-68
2023/07/15 06:10:58;;;;;;;6.63;2.33;;;21.30;63.00;;;;;;5015887;28;20022;-67
2023/07/15 06:13:23;;;;;;;5.72;1.95;;;21.50;62.60;;;;;;5003063;28;20041;-70
2023/07/15 06:15:50;;;;;;;4.28;2.47;;;21.50;63.00;;;;;;5007589;28;20422;-67
2023/07/15 06:18:16;;;;;;;6.60;2.25;;;21.70;61.40;;;;;;5009872;28;20065;-68
2023/07/15 06:20:41;;;;;;;4.85;2.05;;;21.90;60.60;;;;;;5005178;28;20076;-67
2023/07/15 06:23:07;;;;;;;6.95;2.38;;;22.00;61.50;;;;;;5006112;28;20053;-67
2023/07/15 06:25:32;;;;;;;6.20;2.47;;;22.00;61.00;;;;;;5005476;28;20338;-68
2023/07/15 06:27:58;;;;;;;4.13;2.20;;;22.10;60.50;;;;;;5010082;28;20037;-68
2023/07/15 06:30:25;;;;;;;6.25;2.30;;;22.30;60.00;;;;;;5007488;28;20048;-67
2023/07/15 06:32:51;;;;;;;6.35;2.03;;;22.40;61.30;;;;;;5000929;28;20033;-67
2023/07/15 06:35:17;;;;;;;4.85;2.17;;;22.50;60.70;;;;;;5004497;28;20439;-67
2023/07/15 06:37:46;;;;;;;6.80;2.13;;;22.50;58.60;;;;;;5008286;28;20415;-68
2023/07/15 06:40:14;;;;;;;6.68;2.20;;;22.70;61.40;;;;;;5005818;28;20358;-67
2023/07/15 06:42:40;;;;;;;7.18;2.20;;;22.80;59.40;;;;;;5002719;28;20053;-68
2023/07/15 06:45:06;;;;;;;4.72;1.95;;;22.90;59.10;;;;;;5001305;28;20426;-67
2023/07/15 06:47:31;;;;;;;4.68;1.95;;;22.90;59.50;;;;;;5004630;28;20026;-67
2023/07/15 06:49:56;;;;;;;4.07;1.75;;;23.10;61.60;;;;;;5007131;28;20033;-69
2023/07/15 06:52:22;;;;;;;4.35;2.13;;;23.20;59.90;;;;;;5006272;28;20113;-69
2023/07/15 06:54:50;;;;;;;4.88;2.22;;;23.40;58.70;;;;;;5006042;28;20026;-67
2023/07/15 06:57:15;;;;;;;3.60;1.83;;;23.50;58.00;;;;;;5005274;28;20037;-71
2023/07/15 06:59:41;;;;;;;5.10;1.90;;;23.50;57.90;;;;;;5008867;28;20087;-68
2023/07/15 07:02:06;;;;;;;3.33;1.98;;;23.80;58.30;;;;;;5010259;28;20038;-67
2023/07/15 07:04:32;;;;;;;3.60;2.20;;;24.00;59.60;;;;;;5006937;28;20022;-68
2023/07/15 07:06:57;;;;;;;7.47;1.75;;;24.00;56.30;;;;;;5007156;28;20030;-68
2023/07/15 07:09:23;;;;;;;3.50;1.90;;;24.20;57.60;;;;;;5003294;28;20429;-67
2023/07/15 07:11:48;;;;;;;11.82;1.90;;;24.30;56.70;;;;;;5000293;28;20184;-67
2023/07/15 07:14:14;;;;;;;4.07;1.70;;;24.40;55.80;;;;;;5012765;28;20312;-67
2023/07/15 07:16:39;;;;;;;5.70;1.70;;;24.50;58.00;;;;;;5004492;28;20078;-67
2023/07/15 07:19:04;;;;;;;4.22;1.77;;;24.70;57.20;;;;;;5005650;28;20061;-68
2023/07/15 07:21:30;;;;;;;4.15;1.88;;;24.80;55.80;;;;;;5002214;28;20034;-69
2023/07/15 07:23:55;;;;;;;3.88;2.03;;;25.00;55.20;;;;;;5007845;28;20336;-69
2023/07/15 07:26:21;;;;;;;8.20;1.65;;;25.10;56.40;;;;;;5002461;28;20100;-70
2023/07/15 07:28:47;;;;;;;8.38;1.85;;;25.20;53.70;;;;;;5001204;28;20133;-69
2023/07/15 07:31:13;;;;;;;3.85;1.80;;;25.30;54.60;;;;;;5004161;28;20343;-69
2023/07/15 07:33:40;;;;;;;5.20;1.85;;;25.50;55.00;;;;;;5006695;28;20532;-69
2023/07/15 07:36:06;;;;;;;4.05;1.88;;;25.60;55.00;;;;;;5007119;28;20052;-69
2023/07/15 07:38:31;;;;;;;4.07;1.75;;;25.70;54.20;;;;;;5015277;28;20029;-70
2023/07/15 07:41:10;;;;;;;4.20;1.90;;;25.90;53.40;;;;;;5006095;28;20415;-69
2023/07/15 07:43:37;;;;;;;6.70;1.83;;;26.00;53.90;;;;;;4997734;28;20022;-70
2023/07/15 07:46:04;;;;;;;8.35;2.00;;;26.00;52.70;;;;;;5002893;28;20037;-70
2023/07/15 07:48:31;;;;;;;4.13;1.75;;;26.20;53.60;;;;;;5002497;28;20044;-70
2023/07/15 07:50:56;;;;;;;7.10;1.60;;;26.40;54.30;;;;;;5003740;28;20121;-69
2023/07/15 07:53:23;;;;;;;5.53;1.80;;;26.50;54.30;;;;;;5007564;28;20114;-69
2023/07/15 07:55:49;;;;;;;4.05;1.60;;;26.60;53.80;;;;;;5002687;28;20042;-71
2023/07/15 07:58:15;;;;;;;4.38;1.58;;;26.60;52.70;;;;;;5002258;28;20158;-69
2023/07/15 08:00:40;;;;;;;3.13;1.50;;;26.50;50.70;;;;;;5009828;28;20073;-70
2023/07/15 08:03:06;;;;;;;4.80;2.20;;;26.60;53.10;;;;;;5007017;28;20038;-70
2023/07/15 08:05:31;;;;;;;4.50;1.77;;;26.70;50.90;;;;;;5003890;28;20026;-70
2023/07/15 08:07:57;;;;;;;6.60;1.90;;;27.00;51.60;;;;;;5000855;28;20048;-70
2023/07/15 08:10:23;;;;;;;4.55;1.75;;;27.00;51.70;;;;;;5002825;28;20048;-70
2023/07/15 08:12:48;;;;;;;3.63;1.80;;;27.30;53.00;;;;;;5005513;28;20128;-70
2023/07/15 08:15:14;;;;;;;4.13;1.77;;;27.40;50.70;;;;;;5002528;28;20034;-69
2023/07/15 08:17:39;;;;;;;4.30;1.83;;;27.50;50.20;;;;;;5003180;28;20100;-70
2023/07/15 08:20:08;;;;;;;3.33;1.63;;;27.60;50.40;;;;;;5007385;28;20060;-70
2023/07/15 08:22:33;;;;;;;17.48;2.00;;;27.60;49.20;;;;;;5005688;28;20430;-71
2023/07/15 08:24:59;;;;;;;3.72;1.58;;;27.80;49.90;;;;;;4999924;28;20144;-70
2023/07/15 08:27:24;;;;;;;5.40;1.80;;;27.60;48.70;;;;;;5008241;28;20025;-69
2023/07/15 08:29:50;;;;;;;9.75;2.00;;;28.00;48.30;;;;;;5004768;28;20099;-70
2023/07/15 08:32:15;;;;;;;2.92;1.50;;;28.00;49.40;;;;;;5006042;28;20033;-71
2023/07/15 08:34:57;;;;;;;3.25;1.55;;;28.00;49.10;;;;;;5007259;28;20046;-71
2023/07/15 08:37:23;;;;;;;4.13;1.65;;;28.20;48.40;;;;;;4995520;28;20038;-70
2023/07/15 08:39:48;;;;;;;6.10;1.40;;;28.40;48.40;;;;;;5006285;28;20029;-70
2023/07/15 08:42:19;;;;;;;4.25;1.70;;;28.30;47.90;;;;;;5005352;28;20148;-71
2023/07/15 08:44:44;;;;;;;5.43;1.60;;;28.30;47.40;;;;;;4995356;28;20057;-70
2023/07/15 08:47:11;;;;;;;2.90;1.55;;;28.40;48.50;;;;;;5007187;28;20525;-70
2023/07/15 08:49:38;;;;;;;3.30;1.63;;;28.60;48.40;;;;;;5005714;28;20156;-70
2023/07/15 08:52:05;;;;;;;4.13;1.65;;;28.90;48.40;;;;;;5004908;28;20104;-69
2023/07/15 08:54:32;;;;;;;3.45;1.73;;;28.70;46.30;;;;;;5009266;28;20026;-71
2023/07/15 08:56:58;;;;;;;3.00;1.65;;;28.60;44.80;;;;;;5004022;28;20540;-70
2023/07/15 08:59:23;;;;;;;2.67;1.40;;;28.50;44.80;;;;;;5006022;28;20117;-70
2023/07/15 09:01:49;;;;;;;2.88;1.35;;;28.90;46.80;;;;;;5003954;28;20033;-70
2023/07/15 09:04:15;;;;;;;4.60;1.70;;;29.10;47.70;;;;;;5002453;28;20054;-71
2023/07/15 09:06:41;;;;;;;6.03;2.10;;;29.40;47.50;;;;;;5005549;28;20124;-71
2023/07/15 09:09:07;;;;;;;3.72;1.55;;;29.50;45.70;;;;;;5002470;28;20117;-71
2023/07/15 09:11:41;;;;;;;2.28;1.50;;;29.50;47.10;;;;;;5004556;28;20113;-71
2023/07/15 09:14:16;;;;;;;3.42;1.67;;;29.70;47.30;;;;;;4998657;28;20048;-71
2023/07/15 09:16:42;;;;;;;3.05;1.52;;;29.50;44.90;;;;;;5005270;28;20181;-70
2023/07/15 09:19:07;;;;;;;5.75;2.05;;;29.60;47.60;;;;;;5002608;28;20050;-70
2023/07/15 09:21:33;;;;;;;3.58;1.67;;;29.70;45.80;;;;;;4994481;28;20111;-70
2023/07/15 09:24:02;;;;;;;5.35;1.70;;;29.80;44.60;;;;;;4996296;28;20065;-71
2023/07/15 09:26:29;;;;;;;4.20;1.60;;;29.80;46.30;;;;;;5003717;28;20030;-70
2023/07/15 09:28:54;;;;;;;7.00;1.70;;;29.90;44.90;;;;;;5006670;28;20486;-69
2023/07/15 09:31:24;;;;;;;4.28;1.58;;;30.10;44.40;;;;;;5001974;28;20033;-70
2023/07/15 09:33:50;;;;;;;3.03;1.27;;;29.90;45.20;;;;;;5027669;22;20485;-72
2023/07/15 09:36:15;;;;;;;4.18;1.70;;;30.00;45.70;;;;;;4984286;28;20289;-71
2023/07/15 09:38:41;;;;;;;3.33;1.40;;;30.20;44.40;;;;;;4984827;28;20065;-71
2023/07/15 09:41:09;;;;;;;2.05;1.48;;;30.00;45.60;;;;;;4982287;28;20053;-70
2023/07/15 09:43:48;;;;;;;5.95;1.70;;;30.20;45.40;;;;;;4985639;28;20025;-70
2023/07/15 09:46:19;;;;;;;3.45;1.70;;;30.40;44.70;;;;;;4983089;28;20030;-70
2023/07/15 09:48:46;;;;;;;4.53;1.67;;;30.50;44.30;;;;;;4984350;28;20018;-71
2023/07/15 09:51:13;;;;;;;3.50;1.60;;;30.60;45.90;;;;;;4977879;28;20038;-71
2023/07/15 09:53:43;;;;;;;2.95;1.70;;;30.70;44.70;;;;;;4983609;28;20503;-71
2023/07/15 09:56:10;;;;;;;3.50;1.75;;;30.90;45.70;;;;;;4969936;28;20478;-71
2023/07/15 09:58:37;;;;;;;4.40;1.70;;;31.10;45.50;;;;;;4981966;28;20101;-73
2023/07/15 10:01:11;;;;;;;3.10;1.80;;;31.50;46.70;;;;;;4980636;28;20037;-70
2023/07/15 10:04:09;;;;;;;3.15;1.58;;;31.30;43.30;;;;;;4985427;28;20090;-72
2023/07/15 10:06:35;;;;;;;3.85;1.55;;;31.30;43.20;;;;;;4965130;28;20049;-70
2023/07/15 10:09:02;;;;;;;1.70;1.13;;;31.60;43.50;;;;;;4977939;28;20268;-71
2023/07/15 10:11:29;;;;;;;4.40;1.80;;;31.90;43.40;;;;;;4979693;28;20105;-71
2023/07/15 10:13:55;;;;;;;5.03;1.33;;;31.60;42.70;;;;;;4976048;28;20116;-71
2023/07/15 10:16:20;;;;;;;2.53;1.30;;;31.60;42.60;;;;;;4976695;28;20434;-73
2023/07/15 10:18:46;;;;;;;5.20;1.10;;;31.70;41.60;;;;;;4979908;28;20641;-71
2023/07/15 10:21:14;;;;;;;3.00;1.30;;;31.80;42.10;;;;;;4985565;28;20045;-71
2023/07/15 10:23:40;;;;;;;3.60;1.30;;;32.30;43.60;;;;;;4987470;28;20030;-71
2023/07/15 10:26:08;;;;;;;2.35;1.40;;;31.90;40.40;;;;;;4981810;28;20038;-70
2023/07/15 10:28:38;;;;;;;3.55;1.30;;;31.90;41.10;;;;;;4990967;28;20041;-70
2023/07/15 10:31:14;;;;;;;2.92;1.45;;;31.90;40.90;;;;;;4978882;28;20140;-71
2023/07/15 10:33:54;;;;;;;4.68;1.40;;;32.20;41.50;;;;;;4986742;28;20408;-70
2023/07/15 10:36:40;;;;;;;2.88;1.35;;;31.90;41.10;;;;;;4984064;28;20019;-71
2023/07/15 10:39:16;;;;;;;3.13;1.30;;;32.00;40.30;;;;;;4989228;28;20026;-72
2023/07/15 10:41:52;;;;;;;2.92;1.20;;;32.20;40.70;;;;;;4987800;28;20030;-71
2023/07/15 10:44:23;;;;;;;3.15;1.40;;;32.80;42.20;;;;;;4992953;28;20414;-71
2023/07/15 10:46:59;;;;;;;2.80;1.33;;;33.00;43.00;;;;;;4983124;28;20086;-71
2023/07/15 10:49:24;;;;;;;3.72;1.17;;;32.90;39.20;;;;;;4989693;28;20093;-70
2023/07/15 10:51:52;;;;;;;5.28;1.50;;;32.20;40.10;;;;;;4985473;28;20046;-70
2023/07/15 10:54:28;;;;;;;4.22;1.38;;;31.50;40.70;;;;;;4997280;28;20414;-71
2023/07/15 10:56:57;;;;;;;5.00;1.30;;;31.60;41.20;;;;;;4985703;28;20050;-72
2023/07/15 10:59:31;;;;;;;3.38;1.40;;;32.00;41.20;;;;;;4986829;28;20026;-71
2023/07/15 11:01:58;;;;;;;2.83;1.50;;;31.90;42.00;;;;;;4989162;28;20109;-71
2023/07/15 11:04:24;;;;;;;4.68;1.30;;;31.50;43.20;;;;;;4981421;28;20121;-71
2023/07/15 11:06:50;;;;;;;2.83;1.38;;;32.30;41.70;;;;;;4985054;28;20665;-70
2023/07/15 11:09:17;;;;;;;2.30;1.20;;;32.30;39.90;;;;;;4986548;28;20488;-70
2023/07/15 11:11:42;;;;;;;6.10;1.33;;;32.40;40.80;;;;;;4980464;28;20344;-69
2023/07/15 11:14:18;;;;;;;2.70;1.65;;;32.80;40.50;;;;;;4987279;28;20046;-69
2023/07/15 11:16:44;;;;;;;3.97;1.30;;;32.50;41.90;;;;;;4983239;28;20044;-70
2023/07/15 11:19:14;;;;;;;5.97;1.45;;;32.10;41.90;;;;;;4984860;28;20105;-70
2023/07/15 11:21:39;;;;;;;3.58;1.20;;;31.80;41.80;;;;;;4986031;28;20054;-69
2023/07/15 11:24:05;;;;;;;3.58;1.33;;;31.70;44.40;;;;;;4988015;28;20022;-70
2023/07/15 11:26:30;;;;;;;3.70;1.30;;;31.20;43.30;;;;;;4984799;28;20034;-70
2023/07/15 11:28:56;;;;;;;3.72;1.60;;;31.30;44.20;;;;;;4989475;28;20034;-69
2023/07/15 11:31:21;;;;;;;3.42;1.60;;;32.00;44.00;;;;;;4981383;28;20026;-70
2023/07/15 11:33:51;;;;;;;3.65;1.33;;;32.40;41.30;;;;;;4988033;28;20046;-70
2023/07/15 11:36:17;;;;;;;;;;;32.30;41.10;;;;;;4981544;28;20038;-70
2023/07/15 11:38:43;;;;;;;2.28;1.30;;;31.90;42.10;;;;;;4981176;28;19984;-73
2023/07/15 11:41:09;;;;;;;3.90;1.70;;;32.00;42.30;;;;;;4985628;28;20070;-69
2023/07/15 11:43:34;;;;;;;4.65;1.50;;;31.90;42.50;;;;;;4985562;28;20458;-70
2023/07/15 11:46:00;;;;;;;4.20;1.45;;;31.30;43.30;;;;;;4977324;28;20105;-69
2023/07/15 11:48:28;;;;;;;3.15;1.40;;;30.60;43.50;;;;;;4979651;28;20056;-70
2023/07/15 11:51:08;;;;;;;5.10;1.60;;;30.20;44.60;;;;;;4985243;28;20427;-70
2023/07/15 11:53:38;;;;;;;2.75;1.20;;;30.00;44.40;;;;;;5000917;28;20068;-69
2023/07/15 11:56:07;;;;;;;2.95;1.30;;;29.90;45.00;;;;;;4989204;28;20478;-70
2023/07/15 11:58:41;;;;;;;6.38;1.35;;;30.20;43.40;;;;;;4983018;28;20056;-70
2023/07/15 12:01:11;;;;;;;14.45;1.50;;;30.30;44.90;;;;;;4978256;28;20300;-69
2023/07/15 12:03:37;;;;;;;3.00;1.17;;;31.10;43.30;;;;;;4986897;28;20030;-69
2023/07/15 12:06:02;;;;;;;3.30;1.40;;;31.10;44.10;;;;;;4984951;28;20379;-70
2023/07/15 12:08:28;;;;;;;5.70;1.30;;;31.00;43.50;;;;;;4984452;28;20035;-70
2023/07/15 12:10:58;;;;;;;3.05;1.52;;;31.10;45.50;;;;;;4986958;28;20106;-70
2023/07/15 12:13:23;;;;;;;3.80;1.40;;;30.80;45.90;;;;;;4984787;28;20019;-70
2023/07/15 12:15:49;;;;;;;2.17;1.20;;;30.40;45.60;;;;;;4985108;28;20038;-70
2023/07/15 12:18:14;;;;;;;4.75;1.80;;;30.20;46.70;;;;;;4983447;28;20130;-72
2023/07/15 12:20:40;;;;;;;6.43;1.30;;;30.00;46.00;;;;;;4986516;28;20117;-69
2023/07/15 12:23:07;;;;;;;3.90;1.35;;;29.90;46.40;;;;;;4979060;28;20050;-69
2023/07/15 12:25:33;;;;;;;2.78;1.25;;;29.90;47.90;;;;;;4982798;28;20431;-69
2023/07/15 12:27:58;;;;;;;4.80;1.40;;;30.10;47.60;;;;;;4987222;28;20038;-69
2023/07/15 12:30:24;;;;;;;4.40;1.20;;;30.00;48.60;;;;;;4984654;28;20435;-69
2023/07/15 12:32:49;;;;;;;2.03;1.20;;;29.90;47.40;;;;;;4984643;28;20031;-70
2023/07/15 12:35:15;;;;;;;3.17;1.10;;;30.20;48.90;;;;;;4984450;28;20050;-68
2023/07/15 12:37:40;;;;;;;2.70;1.35;;;30.20;48.90;;;;;;4981855;28;20282;-70
2023/07/15 12:40:07;;;;;;;5.72;1.80;;;29.80;48.80;;;;;;4984913;28;20062;-70
2023/07/15 12:42:33;;;;;;;5.80;1.50;;;29.70;49.70;;;;;;4982485;28;20116;-70
2023/07/15 12:44:58;;;;;;;3.15;1.48;;;29.50;50.00;;;;;;4984820;28;20034;-69